Time;durP1;ratioP1;P1;durP2;ratioP2;P2;SDS_P1;SDS_P2;PMS_P1;PMS_P2;Temp;Humidity;BMP_temperature;BMP_pressure;BME280_temperature;BME280_humidity;BME280_pressure;Samples;Min_cycle;Max_cycle;Signal;HPM_P1;HPM_P2
2022/01/18 00:00:23;;;;;;;4.65;1.45;;;;;;;;;;5046182;28;20400;-66
2022/01/18 00:02:49;;;;;;;5.28;1.65;;;;;;;;;;5053432;28;20028;-63
2022/01/18 00:05:17;;;;;;;5.40;1.45;;;;;;;;;;5040753;28;20030;-63
2022/01/18 00:07:44;;;;;;;3.65;1.38;;;;;;;;;;5034425;28;20464;-64
2022/01/18 00:10:10;;;;;;;7.10;2.03;;;;;;;;;;5034245;28;20022;-62
2022/01/18 00:18:06;;;;;;;6.82;1.80;;;;;;;;;;5034029;28;20049;-65
2022/01/18 00:23:20;;;;;;;8.30;2.15;;;;;;;;;;5039560;28;20037;-62
2022/01/18 00:25:51;;;;;;;3.97;1.45;;;;;;;;;;5053985;28;20021;-62
2022/01/18 00:28:17;;;;;;;5.68;1.52;;;;;;;;;;5053982;28;20021;-62
2022/01/18 00:36:10;;;;;;;5.63;1.77;;;;;;;;;;5053798;28;20025;-66
2022/01/18 00:38:47;;;;;;;7.57;2.13;;;;;;;;;;5053696;28;20029;-67
2022/01/18 00:41:14;;;;;;;4.70;1.80;;;;;;;;;;5042595;28;20034;-62
2022/01/18 00:43:41;;;;;;;5.45;1.65;;;;;;;;;;5033777;28;20091;-63
2022/01/18 00:46:07;;;;;;;7.32;2.25;;;;;;;;;;5033655;28;20021;-61
2022/01/18 00:48:35;;;;;;;5.00;1.92;;;;;;;;;;5032611;28;20028;-60
2022/01/18 00:51:03;;;;;;;5.72;2.00;;;;;;;;;;5033702;28;20026;-63
2022/01/18 00:53:32;;;;;;;6.00;1.60;;;;;;;;;;5033720;28;20017;-67
2022/01/18 00:58:37;;;;;;;5.22;1.92;;;;;;;;;;5033707;28;20025;-66
2022/01/18 01:01:04;;;;;;;5.15;1.63;;;;;;;;;;5034100;28;20393;-65
2022/01/18 01:03:30;;;;;;;10.07;1.85;;;;;;;;;;5033410;28;20017;-62
2022/01/18 01:05:56;;;;;;;4.70;1.80;;;;;;;;;;5033514;28;20020;-67
2022/01/18 01:08:22;;;;;;;7.35;2.05;;;;;;;;;;5033522;28;20022;-62
2022/01/18 01:10:48;;;;;;;5.53;2.05;;;;;;;;;;5033382;28;20017;-66
2022/01/18 01:13:15;;;;;;;7.28;1.80;;;;;;;;;;5032183;28;20056;-67
2022/01/18 01:19:44;;;;;;;7.28;2.05;;;;;;;;;;5033342;28;20548;-66
2022/01/18 01:45:49;;;;;;;6.50;1.98;;;;;;;;;;5032807;28;20116;-61
2022/01/18 01:48:17;;;;;;;8.38;2.17;;;;;;;;;;5032737;28;20021;-62
2022/01/18 01:53:12;;;;;;;6.22;1.70;;;;;;;;;;5032580;28;20025;-63
2022/01/18 01:55:39;;;;;;;4.85;2.00;;;;;;;;;;5064383;28;20075;-58
2022/01/18 01:58:06;;;;;;;5.97;1.75;;;;;;;;;;5032469;28;20021;-64
2022/01/18 02:00:32;;;;;;;5.43;1.90;;;;;;;;;;5032379;28;20033;-63
2022/01/18 02:02:58;;;;;;;5.45;1.95;;;;;;;;;;5032345;28;20044;-65
2022/01/18 02:05:25;;;;;;;6.80;1.85;;;;;;;;;;5034138;28;20040;-66
2022/01/18 02:07:51;;;;;;;5.55;1.80;;;;;;;;;;5048393;28;20091;-62
2022/01/18 02:10:17;;;;;;;5.28;1.80;;;;;;;;;;5032284;28;20022;-61
2022/01/18 02:12:43;;;;;;;4.00;1.60;;;;;;;;;;5032195;28;20018;-62
2022/01/18 02:15:14;;;;;;;5.25;1.75;;;;;;;;;;5030764;28;20060;-61
2022/01/18 02:23:24;;;;;;;3.67;1.40;;;;;;;;;;5032015;28;20059;-65
2022/01/18 02:25:50;;;;;;;6.97;2.00;;;;;;;;;;5031821;28;20079;-61
2022/01/18 02:28:17;;;;;;;4.47;1.63;;;;;;;;;;5031997;28;20017;-60
2022/01/18 02:30:44;;;;;;;8.38;1.85;;;;;;;;;;5031991;28;20026;-66
2022/01/18 02:33:11;;;;;;;6.20;1.70;;;;;;;;;;5031860;28;20032;-61
2022/01/18 02:35:37;;;;;;;7.25;2.20;;;;;;;;;;5031855;28;20112;-62
2022/01/18 02:38:03;;;;;;;5.53;2.17;;;;;;;;;;5031826;28;20017;-60
2022/01/18 02:40:30;;;;;;;3.85;1.60;;;;;;;;;;5031613;28;20060;-60
2022/01/18 02:43:46;;;;;;;6.25;1.80;;;;;;;;;;5031515;28;20048;-64
2022/01/18 02:45:47;;;;;;;4.85;1.55;;;;;;;;;;5031340;28;20038;-62
2022/01/18 02:48:13;;;;;;;5.32;1.90;;;;;;;;;;5031593;28;20443;-60
2022/01/18 02:50:39;;;;;;;7.00;2.50;;;;;;;;;;5031679;28;20022;-60
2022/01/18 02:53:05;;;;;;;4.30;1.42;;;;;;;;;;5031768;28;20024;-64
2022/01/18 02:55:31;;;;;;;6.40;1.88;;;;;;;;;;5031519;28;20049;-64
2022/01/18 02:58:03;;;;;;;6.82;2.10;;;;;;;;;;5031494;28;20065;-65
2022/01/18 03:00:44;;;;;;;7.28;1.80;;;;;;;;;;5031594;28;20120;-61
2022/01/18 03:03:13;;;;;;;4.82;1.45;;;;;;;;;;5031439;28;20105;-62
2022/01/18 03:05:40;;;;;;;6.30;1.77;;;;;;;;;;5031415;28;20022;-61
2022/01/18 03:08:06;;;;;;;7.25;1.80;;;;;;;;;;5030634;28;20373;-64
2022/01/18 03:10:32;;;;;;;5.40;1.50;;;;;;;;;;5031515;28;20033;-63
2022/01/18 03:12:58;;;;;;;5.32;1.92;;;;;;;;;;5031388;28;20027;-62
2022/01/18 03:15:24;;;;;;;5.15;1.60;;;;;;;;;;5031293;28;20025;-62
2022/01/18 03:17:50;;;;;;;4.18;1.50;;;;;;;;;;5031181;28;20493;-60
2022/01/18 03:20:19;;;;;;;5.40;1.77;;;;;;;;;;5031057;28;20026;-64
2022/01/18 03:22:46;;;;;;;4.80;1.65;;;;;;;;;;5031425;28;20432;-64
2022/01/18 03:28:04;;;;;;;6.68;2.08;;;;;;;;;;5041449;28;20675;-61
2022/01/18 03:30:31;;;;;;;5.38;1.88;;;;;;;;;;5051221;28;20082;-64
2022/01/18 03:32:57;;;;;;;8.07;1.70;;;;;;;;;;5051126;28;20473;-65
2022/01/18 03:35:23;;;;;;;6.40;1.70;;;;;;;;;;5051002;28;20029;-60
2022/01/18 03:37:50;;;;;;;5.68;1.60;;;;;;;;;;5053682;28;20017;-65
2022/01/18 03:40:16;;;;;;;5.72;1.50;;;;;;;;;;5055004;28;20025;-66
2022/01/18 03:42:45;;;;;;;5.80;1.70;;;;;;;;;;5054972;28;20155;-60
2022/01/18 03:45:12;;;;;;;4.97;1.48;;;;;;;;;;5054940;28;20050;-63
2022/01/18 03:47:39;;;;;;;6.25;1.70;;;;;;;;;;5054878;28;20032;-62
2022/01/18 03:50:05;;;;;;;8.68;2.15;;;;;;;;;;5054859;28;20095;-65
2022/01/18 03:52:32;;;;;;;7.03;1.73;;;;;;;;;;5054676;28;20039;-65
2022/01/18 03:54:58;;;;;;;7.10;1.77;;;;;;;;;;5054746;28;20025;-67
2022/01/18 03:57:24;;;;;;;4.82;1.52;;;;;;;;;;5054826;28;20112;-65
2022/01/18 03:59:50;;;;;;;4.63;1.80;;;;;;;;;;5047967;28;20017;-64
2022/01/18 04:02:17;;;;;;;5.93;1.55;;;;;;;;;;5054711;28;20492;-61
2022/01/18 04:04:43;;;;;;;8.02;1.95;;;;;;;;;;5054292;28;20025;-60
2022/01/18 04:07:09;;;;;;;4.80;1.65;;;;;;;;;;5052754;28;20043;-67
2022/01/18 04:09:36;;;;;;;4.18;1.67;;;;;;;;;;5034490;28;20080;-60
2022/01/18 04:12:02;;;;;;;6.72;1.88;;;;;;;;;;5034531;28;20029;-63
2022/01/18 04:14:28;;;;;;;7.38;1.63;;;;;;;;;;5034413;28;20025;-60
2022/01/18 04:28:01;;;;;;;5.93;1.70;;;;;;;;;;5034144;28;20092;-64
2022/01/18 04:30:27;;;;;;;6.55;1.33;;;;;;;;;;5034046;28;20064;-65
2022/01/18 04:32:53;;;;;;;7.50;1.95;;;;;;;;;;5034033;28;20481;-64
2022/01/18 04:35:19;;;;;;;8.57;2.05;;;;;;;;;;5033942;28;20079;-66
2022/01/18 04:37:45;;;;;;;4.28;1.45;;;;;;;;;;5033951;28;20022;-64
2022/01/18 04:40:15;;;;;;;5.32;1.52;;;;;;;;;;5033899;28;20021;-60
2022/01/18 04:50:43;;;;;;;8.88;2.28;;;;;;;;;;5033848;28;20052;-60
2022/01/18 04:53:09;;;;;;;5.68;1.42;;;;;;;;;;5033762;28;20200;-62
2022/01/18 04:55:36;;;;;;;5.22;1.27;;;;;;;;;;5033661;28;20030;-63
2022/01/18 04:58:02;;;;;;;5.63;1.75;;;;;;;;;;5033638;28;20104;-64
2022/01/18 05:00:28;;;;;;;5.03;1.52;;;;;;;;;;5033563;28;20021;-63
2022/01/18 05:02:54;;;;;;;4.50;1.50;;;;;;;;;;5033628;28;20539;-65
2022/01/18 05:07:52;;;;;;;6.57;1.60;;;;;;;;;;5033729;28;20057;-64
2022/01/18 05:10:20;;;;;;;5.80;1.63;;;;;;;;;;5033399;28;20013;-67
2022/01/18 05:12:49;;;;;;;7.05;1.80;;;;;;;;;;5033422;28;20021;-64
2022/01/18 05:23:08;;;;;;;5.82;1.55;;;;;;;;;;5033245;28;20021;-60
2022/01/18 05:25:35;;;;;;;7.93;1.63;;;;;;;;;;5033127;28;20112;-68
2022/01/18 05:28:02;;;;;;;4.25;1.27;;;;;;;;;;5036870;28;20013;-60
2022/01/18 05:30:28;;;;;;;6.60;2.05;;;;;;;;;;5033045;28;20049;-59
2022/01/18 05:32:55;;;;;;;5.78;1.77;;;;;;;;;;5033141;28;20101;-64
2022/01/18 05:35:21;;;;;;;5.18;1.52;;;;;;;;;;5032909;28;20438;-62
2022/01/18 05:37:47;;;;;;;8.05;2.00;;;;;;;;;;5032979;28;20049;-62
2022/01/18 05:40:13;;;;;;;6.03;1.85;;;;;;;;;;5032990;28;20536;-60
2022/01/18 05:45:24;;;;;;;4.63;1.50;;;;;;;;;;5032718;28;20068;-64
2022/01/18 05:47:50;;;;;;;5.13;1.52;;;;;;;;;;5032664;28;20101;-64
2022/01/18 05:50:16;;;;;;;6.00;1.98;;;;;;;;;;5032723;28;20123;-65
2022/01/18 05:52:42;;;;;;;5.28;1.60;;;;;;;;;;5032649;28;20017;-60
2022/01/18 05:55:09;;;;;;;5.75;1.98;;;;;;;;;;5032416;28;20049;-60
2022/01/18 05:57:35;;;;;;;4.22;1.50;;;;;;;;;;5032807;28;20428;-68
2022/01/18 06:00:05;;;;;;;6.70;1.70;;;;;;;;;;5031810;28;20026;-60
2022/01/18 06:02:47;;;;;;;5.57;1.65;;;;;;;;;;5032509;28;20021;-62
2022/01/18 06:07:58;;;;;;;5.88;1.63;;;;;;;;;;5032393;28;20156;-63
2022/01/18 06:10:25;;;;;;;5.43;1.80;;;;;;;;;;5032527;28;20025;-63
2022/01/18 06:12:51;;;;;;;6.25;1.90;;;;;;;;;;5032269;28;20119;-62
2022/01/18 06:15:18;;;;;;;5.70;1.85;;;;;;;;;;5032231;28;20480;-67
2022/01/18 06:17:45;;;;;;;5.63;1.67;;;;;;;;;;5032107;28;20045;-65
2022/01/18 06:20:11;;;;;;;5.05;1.80;;;;;;;;;;5031890;28;20515;-62
2022/01/18 06:22:38;;;;;;;5.80;1.92;;;;;;;;;;5032162;28;20080;-61
2022/01/18 06:25:04;;;;;;;4.47;1.60;;;;;;;;;;5031782;28;20028;-61
2022/01/18 06:27:30;;;;;;;7.25;2.03;;;;;;;;;;5031789;28;20025;-63
2022/01/18 06:29:56;;;;;;;4.90;1.60;;;;;;;;;;5031994;28;20013;-64
2022/01/18 06:32:24;;;;;;;5.88;2.13;;;;;;;;;;5031881;28;20032;-63
2022/01/18 06:34:50;;;;;;;5.03;1.55;;;;;;;;;;5031819;28;20467;-67
2022/01/18 06:37:16;;;;;;;7.60;2.33;;;;;;;;;;5035651;28;20021;-62
2022/01/18 06:39:42;;;;;;;8.15;2.17;;;;;;;;;;5031780;28;20025;-62
2022/01/18 06:42:14;;;;;;;6.30;2.10;;;;;;;;;;5031866;28;20171;-69
2022/01/18 06:44:40;;;;;;;6.25;1.95;;;;;;;;;;5030341;28;20056;-66
2022/01/18 06:47:06;;;;;;;5.18;1.63;;;;;;;;;;5031713;28;20117;-66
2022/01/18 06:49:32;;;;;;;5.10;1.80;;;;;;;;;;5031351;28;20021;-67
2022/01/18 06:51:58;;;;;;;6.65;2.00;;;;;;;;;;5031428;28;20025;-61
2022/01/18 06:54:24;;;;;;;7.70;2.08;;;;;;;;;;5031571;28;20025;-64
2022/01/18 06:56:50;;;;;;;6.30;1.42;;;;;;;;;;5031238;28;20029;-62
2022/01/18 06:59:18;;;;;;;7.43;2.05;;;;;;;;;;5031409;28;20048;-63
2022/01/18 07:01:44;;;;;;;8.30;2.50;;;;;;;;;;5031361;28;20107;-62
2022/01/18 07:04:10;;;;;;;6.80;2.05;;;;;;;;;;5031350;28;20026;-61
2022/01/18 07:06:36;;;;;;;6.72;2.20;;;;;;;;;;5031396;28;20491;-66
2022/01/18 07:09:03;;;;;;;6.72;2.20;;;;;;;;;;5031391;28;20083;-66
2022/01/18 07:11:29;;;;;;;7.80;2.10;;;;;;;;;;5032034;28;20060;-65
2022/01/18 07:13:55;;;;;;;8.65;2.25;;;;;;;;;;5035507;28;20043;-66
2022/01/18 07:16:21;;;;;;;7.43;2.40;;;;;;;;;;5035345;28;20025;-64
2022/01/18 07:18:47;;;;;;;6.05;1.98;;;;;;;;;;5035341;28;20125;-65
2022/01/18 07:21:13;;;;;;;6.85;2.20;;;;;;;;;;5035201;28;20029;-67
2022/01/18 07:23:39;;;;;;;5.78;2.00;;;;;;;;;;5033960;28;20052;-62
2022/01/18 07:26:06;;;;;;;6.38;2.28;;;;;;;;;;5035195;28;20041;-65
2022/01/18 07:28:32;;;;;;;9.77;2.25;;;;;;;;;;5035204;28;20384;-65
2022/01/18 07:30:58;;;;;;;6.60;2.10;;;;;;;;;;5034866;28;20021;-67
2022/01/18 07:33:24;;;;;;;9.85;2.30;;;;;;;;;;5034967;28;20043;-66
2022/01/18 07:35:50;;;;;;;6.47;1.95;;;;;;;;;;5035080;28;20021;-69
2022/01/18 07:38:18;;;;;;;6.30;2.33;;;;;;;;;;5035149;28;20022;-63
2022/01/18 07:40:48;;;;;;;9.18;2.35;;;;;;;;;;5035059;28;20477;-65
2022/01/18 07:43:18;;;;;;;7.90;2.35;;;;;;;;;;5034894;28;20045;-67
2022/01/18 07:45:45;;;;;;;7.47;2.40;;;;;;;;;;5034659;28;20043;-64
2022/01/18 07:48:12;;;;;;;8.20;2.58;;;;;;;;;;5034631;28;20017;-63
2022/01/18 07:50:39;;;;;;;10.48;2.65;;;;;;;;;;5034625;28;20203;-64
2022/01/18 07:53:05;;;;;;;13.20;2.55;;;;;;;;;;5034652;28;20029;-61
2022/01/18 07:55:31;;;;;;;8.68;2.17;;;;;;;;;;5036056;28;20783;-66
2022/01/18 07:57:59;;;;;;;8.70;2.20;;;;;;;;;;5051771;28;20037;-66
2022/01/18 08:00:25;;;;;;;11.68;2.60;;;;;;;;;;5054209;28;20036;-66
2022/01/18 08:02:51;;;;;;;9.48;2.45;;;;;;;;;;5054298;28;20025;-64
2022/01/18 08:05:17;;;;;;;8.10;2.55;;;;;;;;;;5054455;28;20047;-63
2022/01/18 08:07:43;;;;;;;9.30;2.92;;;;;;;;;;5054544;28;20036;-62
2022/01/18 08:10:10;;;;;;;8.13;2.60;;;;;;;;;;5054575;28;20031;-63
2022/01/18 08:12:36;;;;;;;10.68;2.60;;;;;;;;;;5054292;28;20025;-63
2022/01/18 08:15:12;;;;;;;7.85;2.17;;;;;;;;;;5054110;28;20548;-62
2022/01/18 08:17:39;;;;;;;6.55;2.33;;;;;;;;;;5053907;28;20093;-61
2022/01/18 08:20:05;;;;;;;6.72;1.90;;;;;;;;;;5052746;28;20376;-65
2022/01/18 08:22:31;;;;;;;10.20;3.15;;;;;;;;;;5053734;28;20025;-63
2022/01/18 08:24:57;;;;;;;6.75;2.58;;;;;;;;;;5054159;28;20025;-64
2022/01/18 08:27:23;;;;;;;12.18;2.60;;;;;;;;;;5053984;28;20029;-67
2022/01/18 08:29:49;;;;;;;8.60;2.47;;;;;;;;;;5054124;28;20040;-66
2022/01/18 08:32:16;;;;;;;7.10;2.33;;;;;;;;;;5054056;28;20027;-67
2022/01/18 08:34:42;;;;;;;10.13;2.83;;;;;;;;;;5053902;28;20502;-67
2022/01/18 08:37:08;;;;;;;8.75;2.30;;;;;;;;;;5053934;28;20036;-64
2022/01/18 08:39:34;;;;;;;8.00;2.60;;;;;;;;;;5053852;28;20028;-67
2022/01/18 08:42:00;;;;;;;10.85;2.67;;;;;;;;;;5053640;28;20040;-67
2022/01/18 08:44:26;;;;;;;12.15;2.67;;;;;;;;;;5053834;28;20096;-67
2022/01/18 08:46:52;;;;;;;8.35;2.53;;;;;;;;;;5053948;28;20113;-66
2022/01/18 08:49:19;;;;;;;7.88;2.35;;;;;;;;;;5053685;28;20067;-67
2022/01/18 08:51:45;;;;;;;7.40;1.90;;;;;;;;;;5053502;28;20025;-68
2022/01/18 08:54:11;;;;;;;10.10;2.45;;;;;;;;;;5054050;28;20025;-64
2022/01/18 08:56:37;;;;;;;8.15;2.53;;;;;;;;;;5053374;28;20089;-63
2022/01/18 08:59:03;;;;;;;5.43;2.00;;;;;;;;;;5053795;28;20018;-67
2022/01/18 09:01:29;;;;;;;9.52;2.17;;;;;;;;;;5048459;28;20041;-67
2022/01/18 09:03:55;;;;;;;11.10;2.55;;;;;;;;;;5050760;28;20031;-62
2022/01/18 09:06:23;;;;;;;7.95;2.40;;;;;;;;;;5053307;28;20064;-65
2022/01/18 09:08:56;;;;;;;10.73;2.58;;;;;;;;;;5053073;28;20025;-65
2022/01/18 09:11:24;;;;;;;6.97;2.05;;;;;;;;;;5053335;28;20043;-66
2022/01/18 09:13:50;;;;;;;7.25;2.20;;;;;;;;;;5053332;28;20365;-64
2022/01/18 09:16:16;;;;;;;7.20;2.55;;;;;;;;;;5053231;28;20476;-65
2022/01/18 09:18:43;;;;;;;7.25;1.88;;;;;;;;;;5053101;28;20037;-65
2022/01/18 09:21:09;;;;;;;8.40;2.15;;;;;;;;;;5053013;28;20021;-63
2022/01/18 09:23:37;;;;;;;7.88;2.53;;;;;;;;;;5052972;28;20075;-65
2022/01/18 09:26:04;;;;;;;9.15;2.53;;;;;;;;;;5051993;28;20480;-65
2022/01/18 09:28:30;;;;;;;9.82;2.88;;;;;;;;;;5053022;28;20024;-63
2022/01/18 09:30:56;;;;;;;6.05;2.10;;;;;;;;;;5053006;28;20025;-62
2022/01/18 09:33:22;;;;;;;9.55;2.47;;;;;;;;;;5051605;28;20029;-62
2022/01/18 09:35:48;;;;;;;8.05;2.22;;;;;;;;;;5052066;28;20036;-64
2022/01/18 09:38:14;;;;;;;5.78;1.90;;;;;;;;;;5052907;28;20017;-66
2022/01/18 09:40:43;;;;;;;10.32;2.40;;;;;;;;;;5052600;28;20037;-62
2022/01/18 09:43:12;;;;;;;7.15;1.90;;;;;;;;;;5052644;28;20039;-63
2022/01/18 09:45:41;;;;;;;7.97;2.30;;;;;;;;;;5052510;28;20108;-63
2022/01/18 09:48:07;;;;;;;8.45;2.40;;;;;;;;;;5052576;28;20035;-68
2022/01/18 09:50:34;;;;;;;7.22;2.88;;;;;;;;;;5052498;28;20013;-67
2022/01/18 09:53:01;;;;;;;7.88;2.22;;;;;;;;;;5052509;28;20481;-62
2022/01/18 09:55:29;;;;;;;7.97;2.42;;;;;;;;;;5052644;28;20594;-62
2022/01/18 09:57:56;;;;;;;8.10;2.30;;;;;;;;;;5052478;28;20598;-66
2022/01/18 10:00:23;;;;;;;9.32;2.35;;;;;;;;;;5052330;28;20033;-63
2022/01/18 10:02:49;;;;;;;7.70;2.70;;;;;;;;;;5052278;28;20051;-62
2022/01/18 10:05:18;;;;;;;7.60;2.20;;;;;;;;;;5052344;28;20476;-62
2022/01/18 10:07:45;;;;;;;8.48;2.47;;;;;;;;;;5052194;28;20041;-63
2022/01/18 10:10:11;;;;;;;7.20;2.40;;;;;;;;;;5052353;28;20090;-62
2022/01/18 10:12:37;;;;;;;8.27;1.92;;;;;;;;;;5052234;28;20029;-63
2022/01/18 10:15:05;;;;;;;6.45;2.22;;;;;;;;;;5052063;28;20013;-65
2022/01/18 10:17:35;;;;;;;7.43;2.33;;;;;;;;;;5051909;28;20052;-66
2022/01/18 10:20:04;;;;;;;7.18;2.17;;;;;;;;;;5051954;28;20025;-67
2022/01/18 10:22:40;;;;;;;10.38;2.42;;;;;;;;;;5052011;28;20518;-64
2022/01/18 10:25:16;;;;;;;6.53;1.90;;;;;;;;;;5051997;28;20021;-64
2022/01/18 10:27:43;;;;;;;8.60;2.70;;;;;;;;;;5052045;28;20056;-64
2022/01/18 10:30:15;;;;;;;6.13;1.92;;;;;;;;;;5051815;28;20021;-65
2022/01/18 10:32:42;;;;;;;6.43;2.47;;;;;;;;;;5051860;28;20025;-62
2022/01/18 10:35:10;;;;;;;8.27;2.03;;;;;;;;;;5032560;28;20022;-65
2022/01/18 10:37:41;;;;;;;9.40;2.53;;;;;;;;;;5031546;28;20389;-66
2022/01/18 10:40:08;;;;;;;8.60;2.65;;;;;;;;;;5040437;28;20021;-62
2022/01/18 10:42:41;;;;;;;6.63;2.28;;;;;;;;;;5051346;28;20025;-62
2022/01/18 10:45:11;;;;;;;6.57;2.20;;;;;;;;;;5051340;28;20518;-61
2022/01/18 10:47:38;;;;;;;9.65;2.50;;;;;;;;;;5051416;28;20047;-66
2022/01/18 10:50:08;;;;;;;11.00;2.22;;;;;;;;;;5051379;28;20025;-63
2022/01/18 10:52:34;;;;;;;8.23;2.17;;;;;;;;;;5037692;28;20059;-66
2022/01/18 10:55:01;;;;;;;7.20;2.17;;;;;;;;;;5031296;28;20025;-66
2022/01/18 10:57:27;;;;;;;8.77;2.50;;;;;;;;;;5031199;28;20025;-66
2022/01/18 11:00:08;;;;;;;9.50;2.65;;;;;;;;;;5031147;28;20028;-64
2022/01/18 11:02:35;;;;;;;10.05;2.25;;;;;;;;;;5030979;28;20136;-68
2022/01/18 11:05:11;;;;;;;7.38;2.00;;;;;;;;;;5031090;28;20025;-66
2022/01/18 11:07:38;;;;;;;7.03;2.33;;;;;;;;;;5031934;28;20048;-64
2022/01/18 11:10:05;;;;;;;7.85;3.17;;;;;;;;;;5030094;28;20025;-62
2022/01/18 11:12:42;;;;;;;7.90;2.35;;;;;;;;;;5031173;28;20537;-66
2022/01/18 11:15:15;;;;;;;8.05;2.45;;;;;;;;;;5030990;28;20037;-65
2022/01/18 11:17:49;;;;;;;8.05;2.10;;;;;;;;;;5031051;28;20037;-62
2022/01/18 11:20:15;;;;;;;7.07;2.42;;;;;;;;;;5030912;28;20104;-67
2022/01/18 11:22:42;;;;;;;8.35;2.85;;;;;;;;;;5030927;28;20037;-62
2022/01/18 11:25:09;;;;;;;7.50;2.40;;;;;;;;;;5031669;28;20026;-63
2022/01/18 11:27:35;;;;;;;7.68;2.58;;;;;;;;;;5030888;28;20029;-63
2022/01/18 11:30:02;;;;;;;7.97;2.10;;;;;;;;;;5030903;28;20021;-62
2022/01/18 11:32:28;;;;;;;8.48;2.05;;;;;;;;;;5030875;28;20045;-67
2022/01/18 11:35:04;;;;;;;8.82;2.25;;;;;;;;;;5036010;28;20051;-64
2022/01/18 11:37:30;;;;;;;6.15;2.25;;;;;;;;;;5050615;28;20127;-62
2022/01/18 11:40:00;;;;;;;7.28;2.20;;;;;;;;;;5050769;28;20039;-66
2022/01/18 11:42:37;;;;;;;8.98;2.72;;;;;;;;;;5043581;28;20034;-67
2022/01/18 11:45:22;;;;;;;6.65;2.00;;;;;;;;;;5030788;28;20022;-68
2022/01/18 11:48:00;;;;;;;8.95;2.28;;;;;;;;;;5030972;28;20032;-62
2022/01/18 11:50:30;;;;;;;8.25;2.42;;;;;;;;;;5033064;28;20368;-67
2022/01/18 11:53:26;;;;;;;10.60;2.53;;;;;;;;;;5037776;28;20030;-68
2022/01/18 11:55:53;;;;;;;6.68;2.33;;;;;;;;;;5033762;28;20025;-62
2022/01/18 11:58:19;;;;;;;6.82;2.65;;;;;;;;;;5052225;28;20029;-66
2022/01/18 12:00:57;;;;;;;8.63;2.47;;;;;;;;;;5053391;28;20159;-61
2022/01/18 12:03:26;;;;;;;7.15;2.08;;;;;;;;;;5054230;28;20029;-62
2022/01/18 12:05:53;;;;;;;6.25;1.70;;;;;;;;;;5054153;28;20024;-67
2022/01/18 12:08:38;;;;;;;8.00;2.00;;;;;;;;;;5048419;28;20033;-67
2022/01/18 12:11:06;;;;;;;5.97;1.52;;;;;;;;;;5036046;28;20469;-64
2022/01/18 12:13:34;;;;;;;6.38;1.65;;;;;;;;;;5036951;28;20381;-63
2022/01/18 12:16:03;;;;;;;11.10;3.17;;;;;;;;;;5034421;28;20024;-67
2022/01/18 12:18:30;;;;;;;6.95;2.28;;;;;;;;;;5038444;28;20048;-66
2022/01/18 12:20:58;;;;;;;6.50;2.15;;;;;;;;;;5034572;28;20495;-66
2022/01/18 12:23:28;;;;;;;11.38;2.85;;;;;;;;;;5034346;28;20029;-65
2022/01/18 12:26:03;;;;;;;6.13;2.28;;;;;;;;;;5034410;28;20420;-64
2022/01/18 12:29:20;;;;;;;6.68;2.13;;;;;;;;;;5034373;28;20116;-68
2022/01/18 12:34:28;;;;;;;8.07;2.83;;;;;;;;;;5033995;28;20041;-61
2022/01/18 12:39:51;;;;;;;6.65;2.08;;;;;;;;;;5034233;28;20073;-62
2022/01/18 12:44:57;;;;;;;9.90;2.67;;;;;;;;;;5033874;28;20034;-61
2022/01/18 12:47:23;;;;;;;9.50;2.67;;;;;;;;;;5033913;28;20026;-61
2022/01/18 12:49:51;;;;;;;7.75;2.33;;;;;;;;;;5033872;28;20017;-61
2022/01/18 12:52:17;;;;;;;7.55;2.47;;;;;;;;;;5033789;28;20018;-61
2022/01/18 12:54:43;;;;;;;8.00;2.33;;;;;;;;;;5033664;28;20021;-65
2022/01/18 12:57:23;;;;;;;7.88;2.65;;;;;;;;;;5033631;28;20057;-62
2022/01/18 13:00:04;;;;;;;7.07;2.17;;;;;;;;;;5033594;28;20048;-65
2022/01/18 13:02:30;;;;;;;8.85;2.47;;;;;;;;;;5033409;28;20045;-62
2022/01/18 13:05:14;;;;;;;7.72;2.20;;;;;;;;;;5032299;28;20087;-61
2022/01/18 13:07:50;;;;;;;8.48;2.78;;;;;;;;;;5033551;28;20025;-65
2022/01/18 13:10:16;;;;;;;9.30;2.63;;;;;;;;;;5032233;28;20025;-61
2022/01/18 13:12:44;;;;;;;14.68;2.80;;;;;;;;;;5033389;28;20100;-61
2022/01/18 13:15:11;;;;;;;8.43;2.60;;;;;;;;;;5033380;28;20433;-63
2022/01/18 13:23:30;;;;;;;8.20;2.25;;;;;;;;;;5033070;28;20044;-65
2022/01/18 13:26:00;;;;;;;7.13;2.60;;;;;;;;;;5033123;28;20017;-63
2022/01/18 13:28:36;;;;;;;7.57;2.35;;;;;;;;;;5033114;28;20072;-62
2022/01/18 13:31:15;;;;;;;9.07;2.00;;;;;;;;;;5031646;28;20025;-63
2022/01/18 13:33:56;;;;;;;12.52;2.05;;;;;;;;;;5032926;28;20025;-61
2022/01/18 13:36:22;;;;;;;18.60;2.63;;;;;;;;;;5031675;28;20026;-62
2022/01/18 13:38:50;;;;;;;24.83;2.60;;;;;;;;;;5033020;28;20172;-65
2022/01/18 13:41:17;;;;;;;24.42;2.70;;;;;;;;;;5032671;28;20037;-66
2022/01/18 13:43:43;;;;;;;19.10;2.30;;;;;;;;;;5032667;28;20075;-69
2022/01/18 13:46:09;;;;;;;13.15;2.80;;;;;;;;;;5032868;28;20056;-67
2022/01/18 13:48:37;;;;;;;28.13;2.63;;;;;;;;;;5042262;28;20440;-65
2022/01/18 13:51:19;;;;;;;16.83;2.55;;;;;;;;;;5038115;28;20491;-69
2022/01/18 13:53:45;;;;;;;12.10;2.53;;;;;;;;;;5032227;28;20013;-66
2022/01/18 13:56:17;;;;;;;23.20;3.00;;;;;;;;;;5032497;28;20032;-67
2022/01/18 13:58:53;;;;;;;7.03;2.42;;;;;;;;;;5032759;28;20026;-66
2022/01/18 14:01:22;;;;;;;13.82;2.35;;;;;;;;;;5032131;28;20091;-63
2022/01/18 14:03:50;;;;;;;10.55;2.22;;;;;;;;;;5014721;28;20025;-64
2022/01/18 14:06:17;;;;;;;11.27;2.08;;;;;;;;;;5032064;28;20515;-68
2022/01/18 14:08:48;;;;;;;6.55;2.00;;;;;;;;;;5032012;28;20025;-63
2022/01/18 14:11:19;;;;;;;8.73;2.25;;;;;;;;;;5030799;28;20030;-72
2022/01/18 14:13:45;;;;;;;8.48;2.85;;;;;;;;;;5030668;28;20564;-68
2022/01/18 14:16:24;;;;;;;6.35;2.17;;;;;;;;;;5032395;28;20036;-68
2022/01/18 14:18:50;;;;;;;7.65;2.42;;;;;;;;;;5031689;28;20570;-69
2022/01/18 14:21:25;;;;;;;9.43;2.33;;;;;;;;;;5031387;28;20037;-64
2022/01/18 14:24:12;;;;;;;11.90;3.00;;;;;;;;;;5031887;28;20044;-67
2022/01/18 14:26:41;;;;;;;8.60;2.33;;;;;;;;;;5031521;28;20033;-67
2022/01/18 14:29:07;;;;;;;8.15;2.22;;;;;;;;;;5038386;28;20025;-65
2022/01/18 14:31:33;;;;;;;9.35;2.72;;;;;;;;;;5051612;28;20495;-65
2022/01/18 14:33:59;;;;;;;5.85;2.00;;;;;;;;;;5051415;28;20025;-64
2022/01/18 14:36:25;;;;;;;7.40;2.28;;;;;;;;;;5051702;28;20060;-68
2022/01/18 14:39:05;;;;;;;9.18;1.95;;;;;;;;;;5051931;28;20024;-68
2022/01/18 14:41:31;;;;;;;9.38;2.35;;;;;;;;;;5051586;28;20036;-67
2022/01/18 14:44:03;;;;;;;8.50;2.40;;;;;;;;;;5051641;28;20025;-66
2022/01/18 14:46:55;;;;;;;6.95;1.95;;;;;;;;;;5051392;28;20017;-68
2022/01/18 14:49:15;;;;;;;6.90;1.90;;;;;;;;;;5034708;28;20079;-68
2022/01/18 14:51:42;;;;;;;8.65;2.30;;;;;;;;;;5034325;28;20022;-68
2022/01/18 14:54:08;;;;;;;7.20;2.40;;;;;;;;;;5038173;28;20423;-68
2022/01/18 14:56:34;;;;;;;7.18;2.10;;;;;;;;;;5038623;28;20043;-67
2022/01/18 14:59:00;;;;;;;10.52;2.60;;;;;;;;;;5050552;28;20052;-68
2022/01/18 15:01:26;;;;;;;5.88;2.00;;;;;;;;;;5051046;28;20032;-66
2022/01/18 15:03:53;;;;;;;9.43;2.45;;;;;;;;;;5051115;28;20021;-68
2022/01/18 15:06:19;;;;;;;10.05;2.38;;;;;;;;;;5051523;28;20025;-66
2022/01/18 15:08:45;;;;;;;6.53;2.15;;;;;;;;;;5051324;28;20050;-63
2022/01/18 15:11:11;;;;;;;6.10;1.95;;;;;;;;;;5051122;28;20017;-62
2022/01/18 15:13:37;;;;;;;6.65;1.98;;;;;;;;;;5051184;28;20569;-65
2022/01/18 15:16:03;;;;;;;7.97;2.20;;;;;;;;;;5051268;28;20053;-63
2022/01/18 15:18:29;;;;;;;7.25;2.25;;;;;;;;;;5051017;28;20049;-63
2022/01/18 15:20:55;;;;;;;5.60;2.00;;;;;;;;;;5051074;28;20104;-64
2022/01/18 15:23:22;;;;;;;8.13;2.35;;;;;;;;;;5051009;28;20025;-65
2022/01/18 15:25:48;;;;;;;8.05;2.55;;;;;;;;;;5038914;28;20025;-64
2022/01/18 15:28:14;;;;;;;5.90;2.38;;;;;;;;;;5033603;28;20040;-61
2022/01/18 15:30:40;;;;;;;7.22;2.22;;;;;;;;;;5041397;28;20021;-64
2022/01/18 15:33:09;;;;;;;6.45;2.10;;;;;;;;;;5052167;28;20044;-68
2022/01/18 15:35:35;;;;;;;8.27;2.60;;;;;;;;;;5054661;28;20476;-67
2022/01/18 15:38:01;;;;;;;6.63;2.25;;;;;;;;;;5054674;28;20013;-63
2022/01/18 15:40:27;;;;;;;7.53;2.67;;;;;;;;;;5053803;28;20032;-66
2022/01/18 15:42:53;;;;;;;9.20;2.70;;;;;;;;;;5048675;28;20021;-67
2022/01/18 15:45:19;;;;;;;7.97;2.60;;;;;;;;;;5034543;28;20625;-63
2022/01/18 15:47:45;;;;;;;7.38;2.42;;;;;;;;;;5034442;28;20029;-63
2022/01/18 15:50:12;;;;;;;9.38;2.50;;;;;;;;;;5033342;28;20017;-69
2022/01/18 15:52:38;;;;;;;13.75;2.70;;;;;;;;;;5034663;28;20075;-65
2022/01/18 15:55:04;;;;;;;9.57;2.47;;;;;;;;;;5034459;28;20024;-68
2022/01/18 15:57:30;;;;;;;6.07;2.20;;;;;;;;;;5035009;28;20100;-69
2022/01/18 15:59:57;;;;;;;7.90;2.63;;;;;;;;;;5038519;28;20036;-70
2022/01/18 16:02:23;;;;;;;10.20;2.80;;;;;;;;;;5039863;28;20033;-68
2022/01/18 16:04:50;;;;;;;9.25;2.20;;;;;;;;;;5034669;28;20021;-70
2022/01/18 16:07:16;;;;;;;6.63;2.60;;;;;;;;;;5048119;28;20079;-67
2022/01/18 16:09:42;;;;;;;10.88;3.05;;;;;;;;;;5054193;28;20032;-64
2022/01/18 16:12:08;;;;;;;8.20;2.40;;;;;;;;;;5054274;28;20062;-67
2022/01/18 16:14:34;;;;;;;13.10;3.63;;;;;;;;;;5054179;28;20530;-62
2022/01/18 16:17:01;;;;;;;20.38;3.88;;;;;;;;;;5054097;28;20017;-66
2022/01/18 16:19:28;;;;;;;19.10;4.57;;;;;;;;;;5053070;28;20025;-67
2022/01/18 16:21:55;;;;;;;19.13;3.63;;;;;;;;;;5054137;28;20029;-64
2022/01/18 16:24:22;;;;;;;18.65;3.83;;;;;;;;;;5052905;28;20117;-63
2022/01/18 16:26:49;;;;;;;17.60;3.75;;;;;;;;;;5053968;28;20061;-62
2022/01/18 16:29:15;;;;;;;19.77;3.97;;;;;;;;;;5052757;28;20091;-62